Williamtown, New South Wales

9:48 PM AEDT on October 24, 2014 (GMT +1100)
Cluey Solutions, Harriet Cl | Change Station
CLOSE
Current Station
Personal Weather Station
Location: Raymond Terrace, NEW SOUTH WALES
Elevation: 62 ft
Nearby Weather Stations

Elev 62 ft 32.75 °S, 151.76 °E | Updated 3 minutes ago

Clear
Clear
72.4 °F
Feels Like 74 °F
N
1.1
Wind Variable Wind from ENE
Gusts 2.0 mph

Today
High -- | Low -- °F
--% Chance of Precip.
Yesterday
High -- | Low -- °F
Precip. -- in
6:02 AM 7:11 PM
New Moon, 0% visible
Pressure 29.92 in
Visibility 6.2 miles
Clouds
Heat Index 74 °F
Dew Point 64 °F
Humidity 76%
Rainfall 0.00 in
Snow Depth Not available.
UV Not available.
Pollen Not available.
Air Quality Not available.
Flu Activity Not available.
METAR YWLM 241030Z AUTO 04011KT 9999 // NCD 23/17 Q1013

More Conditions Fewer Conditions

Pressure 29.92 in
Visibility 6.2 miles
Clouds
Heat Index 74 °F
Dew Point 64 °F
Humidity 76%
Rainfall 0.00 in
Snow Depth Not available.
UV Not available.
Pollen Not available.
Air Quality Not available.
Flu Activity Not available.
METAR YWLM 241030Z AUTO 04011KT 9999 // NCD 23/17 Q1013

More Conditions Fewer Conditions

10-Day Weather Forecast

Almanac

Astronomy

Oct. 24, 2014 Rise Set
Actual Time 6:02 AM AEDT 7:11 PM AEDT
Civil Twilight 5:37 AM AEDT 7:37 PM AEDT
Nautical Twilight 5:06 AM AEDT 8:07 PM AEDT
Astronomical Twilight 4:35 AM AEDT 8:39 PM AEDT
Moon 6:06 AM AEDT 7:30 PM AEDT
Length of Visible Light 14h 00m
Length of Day
13h 09m
Tomorrow will be 1m 54s longer.
New Moon, 0% of the Moon is Illuminated
Today
New Moon
Oct 30
First Quarter
Nov 6
Full
Nov 14
Last Quarter
Nov 22
New

Yesterday's Extremes

Country Highs Country Lows

Community

WunderPhotos

Upload Photos

1,764,516 photos uploaded!

WunderBlogs® & News

Nearby

Snow Depth

Not available.

Earthquake Activity

City Distance Mag. Time & Date
No recent earthquake activity has been reported nearby.
Minimum magnitude displayed is 2.5.

Coastal Water Temperatures

Place Temperature
No Stations Reporting

Nearby Weather Stations